Time;durP1;ratioP1;P1;durP2;ratioP2;P2;SDS_P1;SDS_P2;PMS_P1;PMS_P2;Temp;Humidity;BMP_temperature;BMP_pressure;BME280_temperature;BME280_humidity;BME280_pressure;Samples;Min_cycle;Max_cycle;Signal;HPM_P1;HPM_P2
2023/07/17 00:00:57;;;;;;;9.80;2.63;;;17.70;99.90;;;;;;5095854;28;20063;-74
2023/07/17 00:03:24;;;;;;;6.83;2.73;;;17.70;99.90;;;;;;5095492;28;20040;-75
2023/07/17 00:05:51;;;;;;;10.93;2.83;;;17.70;99.90;;;;;;5095588;28;20511;-74
2023/07/17 00:08:17;;;;;;;9.77;2.73;;;17.70;99.90;;;;;;5095130;28;20575;-75
2023/07/17 00:10:43;;;;;;;7.27;2.03;;;17.80;99.90;;;;;;5095721;28;20127;-74
2023/07/17 00:13:09;;;;;;;9.53;2.70;;;17.80;99.90;;;;;;5094337;28;20044;-75
2023/07/17 00:15:35;;;;;;;10.43;2.67;;;17.80;99.90;;;;;;5095251;28;20120;-75
2023/07/17 00:18:01;;;;;;;9.63;3.20;;;17.80;99.90;;;;;;5095308;28;20036;-75
2023/07/17 00:20:26;;;;;;;10.33;2.70;;;17.80;99.90;;;;;;5077273;28;20075;-75
2023/07/17 00:22:52;;;;;;;10.87;2.90;;;17.80;99.90;;;;;;5095499;28;20040;-75
2023/07/17 00:25:18;;;;;;;10.13;3.10;;;17.80;99.90;;;;;;5094926;28;20087;-75
2023/07/17 00:27:44;;;;;;;11.40;3.30;;;17.80;99.90;;;;;;5095238;28;20056;-75
2023/07/17 00:30:09;;;;;;;9.70;2.77;;;17.80;99.90;;;;;;5095078;28;20036;-75
2023/07/17 00:32:35;;;;;;;11.83;3.40;;;17.80;99.90;;;;;;5093805;28;20086;-75
2023/07/17 00:35:01;;;;;;;10.30;2.80;;;17.80;99.90;;;;;;5093787;28;20092;-75
2023/07/17 00:37:27;;;;;;;8.33;2.30;;;17.80;99.90;;;;;;5095034;28;20048;-74
2023/07/17 00:39:52;;;;;;;10.17;2.80;;;17.80;99.90;;;;;;5092485;28;20052;-74
2023/07/17 00:42:18;;;;;;;9.70;2.83;;;17.80;99.90;;;;;;5093521;28;20048;-74
2023/07/17 00:44:44;;;;;;;10.80;3.23;;;17.70;99.90;;;;;;5093745;28;20052;-74
2023/07/17 00:47:10;;;;;;;8.67;2.80;;;17.70;99.90;;;;;;5077196;28;20040;-75
2023/07/17 00:49:36;;;;;;;8.80;2.63;;;17.70;99.90;;;;;;5094534;28;20044;-75
2023/07/17 00:52:04;;;;;;;10.23;2.50;;;17.70;99.90;;;;;;5094769;28;20050;-75
2023/07/17 00:54:31;;;;;;;9.20;2.83;;;17.60;99.90;;;;;;5094542;28;20201;-75
2023/07/17 00:56:59;;;;;;;9.80;2.80;;;17.60;99.90;;;;;;5093720;28;20482;-75
2023/07/17 00:59:26;;;;;;;10.50;2.60;;;17.60;99.90;;;;;;5093422;28;20127;-74
2023/07/17 01:01:53;;;;;;;9.87;2.77;;;17.50;99.90;;;;;;5093424;28;20455;-75
2023/07/17 01:04:18;;;;;;;9.53;2.90;;;17.50;99.90;;;;;;5093565;28;20484;-75
2023/07/17 01:06:44;;;;;;;9.67;2.70;;;17.50;99.90;;;;;;5094250;28;20059;-75
2023/07/17 01:09:11;;;;;;;7.77;2.77;;;17.50;99.90;;;;;;5094448;28;20040;-75
2023/07/17 01:11:37;;;;;;;8.87;2.37;;;17.50;99.90;;;;;;5093050;28;20040;-75
2023/07/17 01:14:03;;;;;;;9.47;2.80;;;17.40;99.90;;;;;;5094367;28;20169;-75
2023/07/17 01:16:28;;;;;;;12.90;3.43;;;17.40;99.90;;;;;;5094152;28;20052;-75
2023/07/17 01:18:54;;;;;;;7.93;2.77;;;17.40;99.90;;;;;;5094316;28;20060;-75
2023/07/17 01:21:25;;;;;;;9.47;2.97;;;17.40;99.90;;;;;;5076456;28;20127;-75
2023/07/17 01:23:52;;;;;;;8.40;3.13;;;17.30;99.90;;;;;;5094481;28;20086;-75
2023/07/17 01:26:19;;;;;;;9.87;3.10;;;17.30;99.90;;;;;;5093391;28;20047;-75
2023/07/17 01:28:45;;;;;;;7.30;2.97;;;17.20;99.90;;;;;;5094054;28;20070;-75
2023/07/17 01:31:12;;;;;;;6.00;2.43;;;17.20;99.90;;;;;;5093837;28;20537;-75
2023/07/17 01:33:38;;;;;;;8.07;2.60;;;17.10;99.90;;;;;;5093339;28;20059;-75
2023/07/17 01:36:06;;;;;;;9.60;2.57;;;17.00;99.90;;;;;;5093524;28;20048;-74
2023/07/17 01:38:33;;;;;;;8.23;2.60;;;17.00;99.90;;;;;;5093270;28;20097;-75
2023/07/17 01:40:59;;;;;;;7.93;2.93;;;17.00;99.90;;;;;;5093918;28;20056;-75
2023/07/17 01:43:24;;;;;;;7.67;2.83;;;17.00;99.90;;;;;;5093412;28;20105;-75
2023/07/17 01:45:50;;;;;;;6.60;2.57;;;16.90;99.90;;;;;;5092595;28;20048;-75
2023/07/17 01:48:17;;;;;;;5.83;2.40;;;16.90;99.90;;;;;;5075926;28;20056;-75
2023/07/17 01:50:46;;;;;;;8.80;2.70;;;16.80;99.90;;;;;;5093276;28;20051;-75
2023/07/17 01:53:13;;;;;;;11.33;3.60;;;16.80;99.90;;;;;;5093725;28;20048;-75
2023/07/17 01:55:39;;;;;;;8.17;2.83;;;16.80;99.90;;;;;;5093332;28;20541;-75
2023/07/17 01:58:04;;;;;;;12.20;2.70;;;16.70;99.90;;;;;;5075330;28;20047;-75
2023/07/17 02:00:30;;;;;;;8.53;3.23;;;16.70;99.90;;;;;;5093529;28;20044;-75
2023/07/17 02:02:56;;;;;;;10.97;3.10;;;16.60;99.90;;;;;;5093427;28;20506;-75
2023/07/17 02:05:22;;;;;;;11.13;3.37;;;16.60;99.90;;;;;;5092129;28;20051;-75
2023/07/17 02:07:47;;;;;;;10.80;3.17;;;16.60;99.90;;;;;;5093101;28;20052;-74
2023/07/17 02:10:13;;;;;;;10.07;3.27;;;16.60;99.90;;;;;;5092352;28;20059;-75
2023/07/17 02:12:39;;;;;;;9.33;3.23;;;16.60;99.90;;;;;;5093275;28;20040;-75
2023/07/17 02:15:06;;;;;;;7.90;3.03;;;16.50;99.90;;;;;;5093279;28;20044;-75
2023/07/17 02:17:32;;;;;;;9.70;3.40;;;16.50;99.90;;;;;;5093099;28;20407;-75
2023/07/17 02:19:58;;;;;;;9.03;3.27;;;16.50;99.90;;;;;;5093363;28;20052;-75
2023/07/17 02:22:24;;;;;;;11.87;3.73;;;16.50;99.90;;;;;;5092195;28;20134;-75
2023/07/17 02:24:49;;;;;;;11.57;3.73;;;16.50;99.90;;;;;;5092899;28;20461;-75
2023/07/17 02:27:16;;;;;;;11.63;3.47;;;16.40;99.90;;;;;;5093134;28;20051;-75
2023/07/17 02:29:42;;;;;;;9.53;3.10;;;16.40;99.90;;;;;;5092912;28;20047;-75
2023/07/17 02:32:07;;;;;;;12.27;3.60;;;16.40;99.90;;;;;;5092963;28;20097;-75
2023/07/17 02:34:33;;;;;;;11.20;3.20;;;16.40;99.90;;;;;;5092820;28;20052;-75
2023/07/17 02:36:59;;;;;;;8.63;2.67;;;16.40;99.90;;;;;;5093290;28;20135;-75
2023/07/17 02:39:24;;;;;;;9.03;3.70;;;16.40;99.90;;;;;;5092900;28;20541;-74
2023/07/17 02:41:50;;;;;;;10.20;3.30;;;16.40;99.90;;;;;;5092607;28;20123;-75
2023/07/17 02:44:16;;;;;;;9.13;3.40;;;16.30;99.90;;;;;;5091668;28;20075;-75
2023/07/17 02:46:41;;;;;;;13.30;3.57;;;16.40;99.90;;;;;;5091694;28;20044;-75
2023/07/17 02:49:11;;;;;;;11.93;3.17;;;16.40;99.90;;;;;;5091555;28;20044;-75
2023/07/17 02:51:37;;;;;;;8.83;2.90;;;16.30;99.90;;;;;;5091551;28;20096;-75
2023/07/17 02:54:03;;;;;;;10.43;3.40;;;16.40;99.90;;;;;;5092776;28;20051;-75
2023/07/17 02:56:28;;;;;;;8.87;3.00;;;16.40;99.90;;;;;;5091730;28;20051;-74
2023/07/17 02:58:54;;;;;;;11.70;3.33;;;16.40;99.90;;;;;;5092499;28;20051;-75
2023/07/17 03:01:20;;;;;;;13.17;3.53;;;16.30;99.90;;;;;;5092525;28;20044;-75
2023/07/17 03:03:46;;;;;;;10.90;3.73;;;16.30;99.90;;;;;;5096666;28;20067;-75
2023/07/17 03:06:12;;;;;;;9.30;3.43;;;16.30;99.90;;;;;;5096848;28;20136;-75
2023/07/17 03:08:38;;;;;;;11.13;3.10;;;16.20;99.90;;;;;;5096584;28;20539;-75
2023/07/17 03:11:04;;;;;;;11.73;2.90;;;16.20;99.90;;;;;;5096787;28;20059;-75
2023/07/17 03:13:30;;;;;;;10.90;3.47;;;16.20;99.90;;;;;;5096413;28;20040;-75
2023/07/17 03:15:58;;;;;;;9.23;3.40;;;16.20;99.90;;;;;;5096416;28;20051;-75
2023/07/17 03:18:25;;;;;;;11.53;3.53;;;16.10;99.90;;;;;;5096633;28;20044;-74
2023/07/17 03:20:52;;;;;;;9.63;3.47;;;16.10;99.90;;;;;;5095330;28;20052;-75
2023/07/17 03:23:17;;;;;;;13.60;3.73;;;16.10;99.90;;;;;;5096412;28;20384;-75
2023/07/17 03:25:43;;;;;;;9.60;3.50;;;16.10;99.90;;;;;;5095870;28;20048;-75
2023/07/17 03:28:09;;;;;;;11.00;3.93;;;16.10;99.90;;;;;;5096033;28;20127;-75
2023/07/17 03:30:35;;;;;;;13.47;4.17;;;16.10;99.90;;;;;;5094778;28;20373;-75
2023/07/17 03:33:02;;;;;;;12.93;4.07;;;16.10;99.90;;;;;;5094371;28;20168;-75
2023/07/17 03:35:28;;;;;;;13.23;3.93;;;16.00;99.90;;;;;;5095889;28;20044;-75
2023/07/17 03:37:54;;;;;;;13.30;3.97;;;16.00;99.90;;;;;;5095686;28;20121;-75
2023/07/17 03:40:19;;;;;;;14.20;3.40;;;16.00;99.90;;;;;;5094067;28;20059;-75
2023/07/17 03:42:45;;;;;;;15.03;4.27;;;15.90;99.90;;;;;;5095492;28;20043;-75
2023/07/17 03:45:11;;;;;;;15.37;4.20;;;15.90;99.90;;;;;;5095933;28;20055;-75
2023/07/17 03:47:37;;;;;;;16.67;4.10;;;15.90;99.90;;;;;;5078203;28;20044;-75
2023/07/17 03:50:03;;;;;;;13.93;4.30;;;15.90;99.90;;;;;;5096115;28;20048;-75
2023/07/17 03:52:29;;;;;;;18.37;4.10;;;15.90;99.90;;;;;;5096103;28;20051;-74
2023/07/17 03:54:55;;;;;;;13.70;4.10;;;15.90;99.90;;;;;;5094716;28;20044;-75
2023/07/17 03:57:21;;;;;;;15.87;5.00;;;15.90;99.90;;;;;;5094480;28;20043;-75
2023/07/17 03:59:56;;;;;;;16.67;4.23;;;16.00;99.90;;;;;;5095516;28;20056;-75
2023/07/17 04:02:22;;;;;;;16.33;4.05;;;16.00;99.90;;;;;;5094616;28;20083;-75
2023/07/17 04:04:48;;;;;;;19.33;4.23;;;16.00;99.90;;;;;;5095531;28;20052;-75
2023/07/17 04:07:14;;;;;;;17.30;4.83;;;16.00;99.90;;;;;;5094715;28;20052;-74
2023/07/17 04:09:40;;;;;;;12.90;3.80;;;16.00;99.90;;;;;;5094698;28;20048;-75
2023/07/17 04:12:06;;;;;;;18.53;5.37;;;16.10;99.90;;;;;;5094254;28;20078;-75
2023/07/17 04:14:33;;;;;;;18.03;4.57;;;16.10;99.90;;;;;;5094298;28;20080;-75
2023/07/17 04:17:00;;;;;;;17.90;4.70;;;16.10;99.90;;;;;;5095316;28;20048;-75
2023/07/17 04:19:27;;;;;;;15.13;4.70;;;16.10;99.90;;;;;;5095486;28;20090;-75
2023/07/17 04:21:53;;;;;;;15.67;4.30;;;16.10;99.90;;;;;;5076972;28;20147;-75
2023/07/17 04:24:19;;;;;;;13.57;3.83;;;16.20;99.90;;;;;;5095656;28;20131;-75
2023/07/17 04:26:45;;;;;;;15.63;5.17;;;16.20;99.90;;;;;;5094320;28;20387;-74
2023/07/17 04:29:10;;;;;;;14.93;4.13;;;16.20;99.90;;;;;;5094067;28;20051;-75
2023/07/17 04:31:36;;;;;;;14.67;4.23;;;16.30;99.90;;;;;;5095164;28;20079;-75
2023/07/17 04:34:02;;;;;;;14.47;4.40;;;16.30;99.90;;;;;;5093748;28;20055;-75
2023/07/17 04:36:28;;;;;;;13.40;4.13;;;16.30;99.90;;;;;;5093964;28;20398;-75
2023/07/17 04:38:54;;;;;;;9.50;3.30;;;16.40;99.90;;;;;;5094246;28;20044;-74
2023/07/17 04:41:19;;;;;;;16.03;4.63;;;16.40;99.90;;;;;;5094774;28;20122;-75
2023/07/17 04:43:45;;;;;;;12.40;3.70;;;16.40;99.90;;;;;;5093397;28;20480;-74
2023/07/17 04:46:11;;;;;;;13.10;3.90;;;16.40;99.90;;;;;;5094301;28;20051;-75
2023/07/17 04:48:37;;;;;;;13.30;3.70;;;16.50;99.90;;;;;;5094522;28;20533;-75
2023/07/17 04:51:02;;;;;;;11.37;4.27;;;16.50;99.90;;;;;;5093261;28;20048;-75
2023/07/17 04:53:28;;;;;;;8.83;3.37;;;16.50;99.90;;;;;;5094355;28;20476;-75
2023/07/17 04:55:54;;;;;;;11.47;4.00;;;16.60;99.90;;;;;;5093221;28;20066;-75
2023/07/17 04:58:20;;;;;;;12.20;3.63;;;16.60;99.90;;;;;;5094386;28;20043;-75
2023/07/17 05:00:47;;;;;;;14.03;4.37;;;16.70;99.90;;;;;;5076325;28;20059;-75
2023/07/17 05:03:13;;;;;;;12.87;3.80;;;16.80;99.90;;;;;;5093118;28;20056;-75
2023/07/17 05:05:39;;;;;;;13.73;4.67;;;16.90;99.90;;;;;;5094170;28;20046;-75
2023/07/17 05:08:05;;;;;;;11.20;4.50;;;17.00;99.90;;;;;;5093794;28;20550;-75
2023/07/17 05:10:31;;;;;;;12.07;4.23;;;17.20;99.90;;;;;;5094475;28;20048;-75
2023/07/17 05:12:59;;;;;;;14.63;4.90;;;17.40;99.90;;;;;;5094115;28;20147;-75
2023/07/17 05:15:24;;;;;;;13.27;4.30;;;17.60;99.90;;;;;;5094459;28;20127;-75
2023/07/17 05:17:50;;;;;;;13.60;5.07;;;17.60;99.90;;;;;;5093397;28;20134;-75
2023/07/17 05:20:16;;;;;;;13.23;5.23;;;17.60;99.90;;;;;;5093890;28;20048;-75
2023/07/17 05:22:42;;;;;;;13.93;5.73;;;17.70;99.90;;;;;;5093099;28;20447;-75
2023/07/17 05:25:07;;;;;;;17.47;5.10;;;17.70;99.90;;;;;;5092290;28;20056;-75
2023/07/17 05:27:33;;;;;;;16.27;5.13;;;17.70;99.90;;;;;;5094250;28;20052;-74
2023/07/17 05:29:59;;;;;;;17.93;5.93;;;17.90;99.90;;;;;;5092797;28;20044;-75
2023/07/17 05:32:25;;;;;;;14.40;5.73;;;18.00;99.90;;;;;;5092693;28;20047;-75
2023/07/17 05:34:53;;;;;;;18.87;5.50;;;18.00;99.90;;;;;;5092868;28;20051;-73
2023/07/17 05:37:19;;;;;;;18.70;5.70;;;18.00;99.90;;;;;;5094060;28;20048;-73
2023/07/17 05:39:45;;;;;;;13.83;5.37;;;18.20;99.90;;;;;;5093827;28;20420;-74
2023/07/17 05:42:11;;;;;;;16.60;5.20;;;18.20;99.90;;;;;;5093609;28;20044;-74
2023/07/17 05:44:36;;;;;;;15.87;5.67;;;18.20;99.90;;;;;;5093910;28;20039;-74
2023/07/17 05:47:02;;;;;;;19.33;5.40;;;18.20;99.90;;;;;;5093530;28;20048;-75
2023/07/17 05:49:28;;;;;;;16.20;5.77;;;18.20;99.90;;;;;;5093497;28;20165;-73
2023/07/17 05:51:54;;;;;;;15.30;5.70;;;18.40;99.90;;;;;;5092376;28;20044;-73
2023/07/17 05:54:20;;;;;;;12.73;5.33;;;18.60;99.90;;;;;;5093402;28;20094;-73
2023/07/17 05:56:46;;;;;;;16.17;6.27;;;19.10;99.90;;;;;;5093827;28;20047;-73
2023/07/17 05:59:12;;;;;;;14.27;5.47;;;20.30;99.90;;;;;;5093378;28;20240;-71
2023/07/17 06:01:37;;;;;;;15.13;5.80;;;21.40;99.90;;;;;;5093329;28;20086;-74
2023/07/17 06:04:03;;;;;;;13.93;6.37;;;21.70;99.90;;;;;;5092326;28;20101;-74
2023/07/17 06:06:29;;;;;;;20.63;6.27;;;21.30;99.90;;;;;;5092341;28;20063;-76
2023/07/17 06:08:54;;;;;;;13.93;5.57;;;21.00;99.90;;;;;;5092114;28;20084;-76
2023/07/17 06:11:20;;;;;;;13.57;5.50;;;21.20;99.90;;;;;;5091955;28;20050;-75
2023/07/17 06:13:46;;;;;;;15.30;6.53;;;21.10;99.90;;;;;;5092868;28;20048;-76
2023/07/17 06:16:11;;;;;;;13.57;5.87;;;20.90;99.90;;;;;;5093340;28;20467;-75
2023/07/17 06:18:37;;;;;;;12.93;5.27;;;20.60;99.90;;;;;;5093513;28;20492;-75
2023/07/17 06:21:03;;;;;;;14.20;5.10;;;20.30;99.90;;;;;;5093311;28;20044;-75
2023/07/17 06:23:28;;;;;;;17.37;5.17;;;20.00;99.90;;;;;;5092712;28;20052;-75
2023/07/17 06:25:54;;;;;;;12.17;5.93;;;19.70;99.90;;;;;;5093553;28;20513;-75
2023/07/17 06:28:20;;;;;;;12.47;5.37;;;19.50;99.90;;;;;;5093167;28;20047;-75
2023/07/17 06:30:46;;;;;;;15.60;6.37;;;19.40;99.90;;;;;;5093562;28;20044;-75
2023/07/17 06:33:13;;;;;;;17.37;5.80;;;19.20;99.90;;;;;;5092737;28;20488;-75
2023/07/17 06:35:39;;;;;;;12.73;5.70;;;19.10;99.90;;;;;;5091785;28;20117;-74
2023/07/17 06:38:05;;;;;;;15.30;5.30;;;19.00;99.90;;;;;;5092553;28;20036;-75
2023/07/17 06:40:30;;;;;;;14.03;5.77;;;18.90;99.90;;;;;;5093188;28;20055;-75
2023/07/17 06:42:56;;;;;;;13.93;5.27;;;18.70;99.90;;;;;;5093141;28;20040;-75
2023/07/17 06:45:22;;;;;;;16.13;5.73;;;18.60;99.90;;;;;;5092906;28;20050;-75
2023/07/17 06:47:48;;;;;;;14.37;5.27;;;18.50;99.90;;;;;;5092850;28;20047;-75
2023/07/17 06:50:13;;;;;;;12.60;4.93;;;18.50;99.90;;;;;;5092840;28;20094;-75
2023/07/17 06:52:41;;;;;;;15.43;5.40;;;18.40;99.90;;;;;;5093046;28;20040;-75
2023/07/17 06:55:08;;;;;;;12.83;4.93;;;18.40;99.90;;;;;;5091778;28;20507;-75
2023/07/17 06:57:34;;;;;;;12.07;4.63;;;18.20;99.90;;;;;;5091766;28;20101;-75
2023/07/17 07:00:00;;;;;;;8.33;4.27;;;18.10;99.90;;;;;;5092922;28;20047;-75
2023/07/17 07:02:25;;;;;;;12.43;5.13;;;18.00;99.90;;;;;;5092668;28;20040;-75
2023/07/17 07:04:51;;;;;;;11.10;4.17;;;18.00;99.90;;;;;;5092952;28;20484;-75
2023/07/17 07:07:17;;;;;;;14.00;5.27;;;18.20;99.90;;;;;;5091515;28;20044;-76
2023/07/17 07:09:42;;;;;;;10.37;4.40;;;19.80;99.90;;;;;;5092865;28;20040;-74
2023/07/17 07:12:08;;;;;;;11.83;5.03;;;21.70;99.90;;;;;;5091550;28;20043;-75
2023/07/17 07:14:34;;;;;;;10.67;4.43;;;23.50;99.90;;;;;;5092835;28;20055;-75
2023/07/17 07:17:00;;;;;;;10.40;4.43;;;24.80;99.90;;;;;;5091731;28;20051;-75
2023/07/17 07:19:26;;;;;;;11.90;4.50;;;25.80;99.90;;;;;;5092620;28;20036;-74
2023/07/17 07:21:51;;;;;;;12.40;4.27;;;26.40;99.90;;;;;;5091488;28;20418;-75
2023/07/17 07:24:17;;;;;;;11.50;4.73;;;26.30;96.70;;;;;;5092522;28;20123;-74
2023/07/17 07:26:43;;;;;;;9.40;4.63;;;25.90;94.60;;;;;;5093067;28;20047;-75
2023/07/17 07:29:08;;;;;;;10.00;4.17;;;25.30;95.00;;;;;;5092607;28;20476;-75
2023/07/17 07:31:34;;;;;;;8.03;4.00;;;25.70;96.50;;;;;;5092562;28;20095;-74
2023/07/17 07:34:00;;;;;;;9.33;4.33;;;26.50;95.70;;;;;;5074908;28;20052;-75
2023/07/17 07:36:28;;;;;;;11.73;4.80;;;27.40;92.00;;;;;;5091248;28;20059;-76
2023/07/17 07:38:54;;;;;;;9.50;4.07;;;27.30;82.60;;;;;;5092418;28;20051;-75
2023/07/17 07:41:20;;;;;;;7.57;3.97;;;27.70;79.70;;;;;;5092305;28;20086;-74
2023/07/17 07:43:46;;;;;;;8.70;4.70;;;28.40;76.90;;;;;;5092676;28;20437;-75
2023/07/17 07:46:11;;;;;;;10.88;4.40;;;29.10;67.80;;;;;;5092360;28;20527;-76
2023/07/17 07:48:37;;;;;;;10.73;3.83;;;29.80;62.90;;;;;;5093658;28;20059;-75
2023/07/17 07:51:03;;;;;;;9.93;3.65;;;30.50;58.00;;;;;;5096436;28;20181;-75
2023/07/17 07:53:30;;;;;;;9.38;3.42;;;30.80;56.00;;;;;;5095720;28;20441;-75
2023/07/17 07:55:56;;;;;;;8.23;3.30;;;31.00;54.60;;;;;;5096167;28;20051;-75
2023/07/17 07:58:21;;;;;;;9.02;3.70;;;30.80;52.30;;;;;;5095873;28;20044;-76
2023/07/17 08:00:47;;;;;;;8.98;3.47;;;29.70;52.40;;;;;;5096168;28;20063;-76
2023/07/17 08:03:13;;;;;;;8.38;3.53;;;28.70;52.70;;;;;;5094883;28;20564;-75
2023/07/17 08:05:39;;;;;;;7.65;2.95;;;27.60;54.00;;;;;;5096023;28;20135;-75
2023/07/17 08:08:04;;;;;;;7.93;3.25;;;26.60;56.50;;;;;;5096044;28;20055;-75
2023/07/17 08:10:30;;;;;;;9.60;3.55;;;25.80;58.10;;;;;;5095701;28;20048;-75
2023/07/17 08:12:57;;;;;;;8.13;2.97;;;25.30;60.20;;;;;;5095755;28;20074;-75
2023/07/17 08:15:23;;;;;;;7.57;3.40;;;24.80;62.50;;;;;;5095517;28;20048;-75
2023/07/17 08:17:49;;;;;;;9.83;3.47;;;25.00;65.60;;;;;;5095786;28;20341;-74
2023/07/17 08:20:14;;;;;;;7.00;2.93;;;25.70;65.00;;;;;;5095577;28;20055;-75
2023/07/17 08:22:40;;;;;;;5.93;2.40;;;25.70;60.30;;;;;;5095726;28;20392;-75
2023/07/17 08:25:07;;;;;;;6.90;2.80;;;25.40;58.50;;;;;;5095828;28;20048;-75
2023/07/17 08:27:32;;;;;;;7.60;2.80;;;25.40;58.80;;;;;;5094282;28;20048;-75
2023/07/17 08:29:58;;;;;;;5.83;2.47;;;25.30;57.30;;;;;;5095271;28;20048;-75
2023/07/17 08:32:24;;;;;;;7.60;3.30;;;25.40;57.50;;;;;;5093982;28;20036;-75
2023/07/17 08:34:49;;;;;;;8.10;2.87;;;25.80;57.70;;;;;;5095596;28;20174;-75
2023/07/17 08:37:15;;;;;;;6.30;2.83;;;26.10;56.90;;;;;;5095411;28;20048;-75
2023/07/17 08:39:41;;;;;;;7.00;2.93;;;26.30;56.00;;;;;;5095496;28;20547;-75
2023/07/17 08:42:08;;;;;;;7.37;2.83;;;26.00;54.80;;;;;;5095190;28;20047;-75
2023/07/17 08:44:34;;;;;;;9.77;2.70;;;25.70;55.30;;;;;;5095073;28;20087;-75
2023/07/17 08:47:05;;;;;;;10.80;3.70;;;25.60;57.10;;;;;;5094425;28;20076;-75
2023/07/17 08:49:33;;;;;;;8.30;2.73;;;25.50;57.20;;;;;;5077226;28;20373;-75
2023/07/17 08:52:01;;;;;;;5.97;2.50;;;25.20;56.50;;;;;;5093891;28;20454;-75
2023/07/17 08:54:28;;;;;;;5.60;2.67;;;24.70;56.50;;;;;;5094863;28;20048;-75
2023/07/17 08:56:54;;;;;;;6.13;2.43;;;24.30;57.20;;;;;;5094908;28;20500;-75
2023/07/17 08:59:20;;;;;;;6.47;2.40;;;24.10;58.30;;;;;;5093940;28;20084;-75
2023/07/17 09:01:49;;;;;;;5.93;2.30;;;23.90;59.10;;;;;;5094924;28;20120;-75
2023/07/17 09:04:16;;;;;;;7.30;2.70;;;23.80;60.30;;;;;;5094544;28;20480;-74
2023/07/17 09:06:41;;;;;;;7.57;2.70;;;23.90;60.90;;;;;;5094615;28;20052;-75
2023/07/17 09:09:10;;;;;;;7.10;2.20;;;24.10;61.60;;;;;;5094948;28;20322;-75
2023/07/17 09:11:36;;;;;;;9.70;2.50;;;24.10;60.90;;;;;;5094406;28;20048;-75
2023/07/17 09:14:03;;;;;;;6.20;2.17;;;24.10;60.20;;;;;;5094493;28;20103;-75
2023/07/17 09:16:29;;;;;;;8.50;2.50;;;24.10;60.40;;;;;;5094457;28;20040;-75
2023/07/17 09:18:55;;;;;;;7.93;2.40;;;24.00;60.50;;;;;;5094722;28;20110;-75
2023/07/17 09:21:23;;;;;;;6.23;2.30;;;24.00;61.00;;;;;;5094381;28;20468;-75
2023/07/17 09:23:54;;;;;;;8.87;2.37;;;23.90;62.70;;;;;;5094818;28;20071;-75
2023/07/17 09:26:22;;;;;;;7.43;2.50;;;24.10;63.50;;;;;;5094468;28;20055;-74
2023/07/17 09:28:53;;;;;;;9.23;2.70;;;24.10;63.90;;;;;;5094112;28;20488;-75
2023/07/17 09:31:28;;;;;;;5.30;2.13;;;24.20;63.50;;;;;;5094497;28;20048;-75
2023/07/17 09:34:05;;;;;;;8.30;2.63;;;24.20;63.20;;;;;;5094635;28;20055;-75
2023/07/17 09:36:31;;;;;;;7.40;2.90;;;24.10;64.10;;;;;;5094073;28;20047;-75
2023/07/17 09:38:58;;;;;;;8.07;2.83;;;24.00;65.00;;;;;;5094277;28;20111;-74
2023/07/17 09:41:28;;;;;;;9.13;2.60;;;24.00;65.20;;;;;;5093837;28;20565;-75
2023/07/17 09:44:05;;;;;;;6.80;2.67;;;24.10;67.60;;;;;;5093859;28;20527;-75
2023/07/17 09:46:36;;;;;;;9.27;2.60;;;24.10;66.80;;;;;;5094199;28;20052;-75
2023/07/17 09:49:04;;;;;;;11.23;2.50;;;24.10;65.60;;;;;;5094093;28;20090;-75
2023/07/17 09:51:30;;;;;;;7.63;2.60;;;23.90;65.20;;;;;;5075782;28;20067;-74
2023/07/17 09:53:59;;;;;;;5.70;2.40;;;23.70;65.90;;;;;;5093898;28;20048;-74
2023/07/17 09:56:30;;;;;;;7.40;2.70;;;23.60;66.50;;;;;;5092748;28;20055;-74
2023/07/17 09:59:10;;;;;;;6.37;2.27;;;23.40;66.90;;;;;;5094039;28;20054;-74
2023/07/17 10:01:37;;;;;;;6.57;2.67;;;23.20;68.40;;;;;;5093408;28;20487;-75
2023/07/17 10:04:07;;;;;;;6.83;2.40;;;23.10;69.30;;;;;;5093743;28;20130;-75
2023/07/17 10:06:34;;;;;;;7.37;2.50;;;23.00;70.40;;;;;;5075529;28;20490;-74
2023/07/17 10:09:02;;;;;;;8.27;2.80;;;22.90;72.40;;;;;;5093700;28;20040;-75
2023/07/17 10:11:28;;;;;;;10.27;2.67;;;22.90;74.10;;;;;;5093116;28;20040;-75
2023/07/17 10:13:55;;;;;;;7.17;2.77;;;22.80;73.40;;;;;;5093276;28;20036;-75
2023/07/17 10:16:21;;;;;;;6.30;2.73;;;22.80;74.20;;;;;;5093496;28;20531;-75
2023/07/17 10:18:48;;;;;;;8.17;2.77;;;22.60;76.30;;;;;;5093352;28;20063;-75
2023/07/17 10:21:16;;;;;;;8.17;2.87;;;22.60;76.80;;;;;;5093525;28;20109;-75
2023/07/17 10:23:43;;;;;;;8.43;2.93;;;22.60;77.80;;;;;;5093195;28;20480;-75
2023/07/17 10:26:16;;;;;;;8.50;2.90;;;22.70;77.40;;;;;;5093364;28;20052;-75
2023/07/17 10:28:47;;;;;;;4.67;2.33;;;22.70;77.80;;;;;;5093203;28;20408;-74
2023/07/17 10:31:23;;;;;;;6.90;2.63;;;22.80;77.60;;;;;;5093479;28;20052;-74
2023/07/17 10:33:52;;;;;;;8.10;2.47;;;22.90;74.20;;;;;;5093088;28;20083;-75
2023/07/17 10:36:19;;;;;;;5.27;2.40;;;22.90;73.00;;;;;;5093209;28;20083;-75
2023/07/17 10:38:51;;;;;;;6.10;3.10;;;22.90;72.50;;;;;;5092714;28;20453;-75
2023/07/17 10:41:16;;;;;;;6.07;2.43;;;22.90;72.40;;;;;;5093322;28;20048;-75
2023/07/17 10:44:01;;;;;;;6.83;3.20;;;22.80;72.70;;;;;;5093043;28;20387;-75
2023/07/17 10:46:28;;;;;;;6.40;2.73;;;22.70;74.60;;;;;;5093463;28;20468;-74
2023/07/17 10:49:08;;;;;;;8.43;3.00;;;22.70;74.80;;;;;;5092886;28;20054;-75
2023/07/17 10:51:36;;;;;;;6.80;3.20;;;22.60;75.80;;;;;;5092733;28;20448;-75
2023/07/17 10:54:02;;;;;;;6.40;2.57;;;22.70;77.60;;;;;;5093012;28;20044;-75
2023/07/17 10:56:29;;;;;;;6.97;2.83;;;22.70;77.30;;;;;;5092811;28;20090;-75
2023/07/17 10:58:56;;;;;;;10.67;2.87;;;22.80;75.50;;;;;;5092807;28;20084;-75
2023/07/17 11:01:22;;;;;;;8.57;2.27;;;22.90;74.60;;;;;;5092690;28;20552;-75
2023/07/17 11:03:48;;;;;;;5.93;2.20;;;22.90;72.20;;;;;;5092602;28;20048;-75
2023/07/17 11:06:18;;;;;;;10.00;2.40;;;23.00;73.70;;;;;;5091483;28;20484;-75
2023/07/17 11:08:48;;;;;;;5.70;2.30;;;23.00;75.10;;;;;;5092664;28;20040;-75
2023/07/17 11:11:15;;;;;;;11.70;2.93;;;23.10;73.40;;;;;;5093118;28;20051;-74
2023/07/17 11:13:46;;;;;;;6.63;2.53;;;23.10;72.20;;;;;;5092549;28;20056;-75
2023/07/17 11:16:13;;;;;;;8.80;2.20;;;23.10;73.00;;;;;;5092997;28;20047;-75
2023/07/17 11:18:46;;;;;;;8.17;2.90;;;23.10;73.90;;;;;;5074815;28;20182;-75
2023/07/17 11:21:13;;;;;;;4.77;2.37;;;23.00;74.50;;;;;;5074589;28;20384;-75
2023/07/17 11:23:55;;;;;;;12.00;3.03;;;22.90;73.60;;;;;;5095013;28;20170;-75
2023/07/17 11:26:32;;;;;;;8.63;2.77;;;22.90;75.10;;;;;;5095797;28;20051;-75
2023/07/17 11:28:59;;;;;;;7.37;2.10;;;22.90;74.60;;;;;;5095243;28;20496;-75
2023/07/17 11:31:27;;;;;;;8.60;3.20;;;22.90;75.80;;;;;;5096657;28;20059;-75
2023/07/17 11:33:57;;;;;;;7.80;2.53;;;23.00;77.40;;;;;;5096355;28;20040;-75
2023/07/17 11:36:27;;;;;;;6.50;2.60;;;22.90;78.40;;;;;;5096725;28;20044;-75
2023/07/17 11:38:57;;;;;;;8.47;2.50;;;22.90;85.50;;;;;;5096138;28;20052;-74
2023/07/17 11:41:25;;;;;;;5.47;2.50;;;22.90;88.00;;;;;;5096441;28;20056;-74
2023/07/17 11:44:00;;;;;;;8.30;2.87;;;22.80;90.00;;;;;;5095109;28;20043;-74
2023/07/17 11:46:26;;;;;;;7.40;2.92;;;22.90;90.30;;;;;;5096477;28;20147;-75
2023/07/17 11:48:53;;;;;;;10.00;2.70;;;22.80;86.10;;;;;;5096196;28;20044;-75
2023/07/17 11:51:23;;;;;;;7.37;2.40;;;22.80;85.80;;;;;;5094911;28;20051;-75
2023/07/17 11:53:56;;;;;;;7.67;2.30;;;22.80;86.80;;;;;;5077427;28;20090;-75
2023/07/17 11:56:43;;;;;;;5.70;2.47;;;22.80;85.70;;;;;;5096139;28;20051;-75
2023/07/17 11:59:22;;;;;;;8.23;2.60;;;22.80;85.00;;;;;;5096087;28;20109;-75
2023/07/17 12:01:49;;;;;;;5.47;2.67;;;22.80;82.40;;;;;;5095998;28;20052;-75
2023/07/17 12:04:23;;;;;;;6.33;2.47;;;22.70;78.50;;;;;;5096006;28;20059;-75
2023/07/17 12:06:50;;;;;;;6.80;2.50;;;22.70;80.40;;;;;;5095815;28;20126;-75
2023/07/17 12:09:17;;;;;;;4.97;2.50;;;22.60;75.20;;;;;;5096182;28;20070;-75
2023/07/17 12:11:44;;;;;;;7.63;2.70;;;22.60;70.50;;;;;;5095782;28;20054;-75
2023/07/17 12:14:10;;;;;;;5.60;2.50;;;22.60;70.20;;;;;;5095872;28;20392;-74
2023/07/17 12:16:36;;;;;;;8.13;2.70;;;22.60;71.40;;;;;;5095841;28;20051;-75
2023/07/17 12:19:03;;;;;;;6.70;2.57;;;22.70;70.30;;;;;;5094358;28;20048;-74
2023/07/17 12:21:29;;;;;;;6.37;2.57;;;22.70;70.50;;;;;;5095369;28;20467;-75
2023/07/17 12:23:54;;;;;;;5.73;2.53;;;22.60;69.20;;;;;;5095421;28;20044;-74
2023/07/17 12:26:20;;;;;;;6.20;2.40;;;22.50;69.80;;;;;;5095842;28;20047;-74
2023/07/17 12:28:46;;;;;;;4.70;2.37;;;22.50;70.60;;;;;;5095497;28;20381;-75
2023/07/17 12:31:11;;;;;;;7.80;2.60;;;22.40;71.70;;;;;;5095771;28;20369;-74
2023/07/17 12:33:37;;;;;;;7.63;2.53;;;22.40;71.00;;;;;;5095085;28;20051;-74
2023/07/17 12:36:03;;;;;;;8.13;2.57;;;22.40;71.20;;;;;;5093390;28;20109;-74
2023/07/17 12:38:29;;;;;;;6.57;2.60;;;22.40;71.50;;;;;;5095448;28;20130;-74
2023/07/17 12:40:54;;;;;;;5.93;2.73;;;22.50;71.50;;;;;;5095337;28;20059;-74